createdAt,value
2017-07-07T00:00:19.701Z,1012.2
2017-07-07T00:01:19.723Z,1012.15
2017-07-07T00:02:19.748Z,1012.15
2017-07-07T00:03:19.779Z,1012.14
2017-07-07T00:04:19.800Z,1012.12
2017-07-07T00:05:19.824Z,1012.11
2017-07-07T00:06:19.853Z,1012.06
2017-07-07T00:07:19.872Z,1012.07
2017-07-07T00:08:19.898Z,1012.05
2017-07-07T00:09:19.924Z,1012.07
2017-07-07T00:10:19.946Z,1012.08
2017-07-07T00:11:19.969Z,1012.02
2017-07-07T00:12:19.998Z,1012.06
2017-07-07T00:13:20.021Z,1012.1
2017-07-07T00:14:20.042Z,1012.07
2017-07-07T00:15:20.115Z,1012.07
2017-07-07T00:16:20.090Z,1012.04
2017-07-07T00:17:20.118Z,1012
2017-07-07T00:18:20.142Z,1012.05
2017-07-07T00:19:20.169Z,1011.98
2017-07-07T00:20:20.188Z,1012
2017-07-07T00:21:20.215Z,1012
2017-07-07T00:22:20.239Z,1012.02
2017-07-07T00:23:20.311Z,1012.01
2017-07-07T00:24:20.291Z,1012.03
2017-07-07T00:25:20.313Z,1012.02
2017-07-07T00:27:20.363Z,1011.97
2017-07-07T00:28:20.388Z,1011.99
2017-07-07T00:29:20.411Z,1011.99
2017-07-07T00:30:20.432Z,1011.97
2017-07-07T00:31:20.458Z,1011.94
2017-07-07T00:32:20.481Z,1011.94
2017-07-07T00:33:20.508Z,1011.93
2017-07-07T00:34:20.529Z,1011.94
2017-07-07T00:35:20.559Z,1011.94
2017-07-07T00:36:20.581Z,1011.99
2017-07-07T00:37:20.606Z,1012
2017-07-07T00:38:20.631Z,1011.96
2017-07-07T00:39:20.654Z,1011.99
2017-07-07T00:40:20.677Z,1011.93
2017-07-07T00:41:20.703Z,1011.95
2017-07-07T00:43:20.751Z,1011.96
2017-07-07T00:44:20.776Z,1011.97
2017-07-07T00:45:20.801Z,1011.95
2017-07-07T00:46:20.825Z,1011.97
2017-07-07T00:47:20.845Z,1011.96
2017-07-07T00:48:20.874Z,1011.94
2017-07-07T00:49:20.899Z,1011.93
2017-07-07T00:50:20.923Z,1011.94
2017-07-07T00:51:20.947Z,1011.93
2017-07-07T00:52:20.972Z,1011.92
2017-07-07T00:53:20.994Z,1011.9
2017-07-07T00:54:21.021Z,1011.88
2017-07-07T00:55:21.044Z,1011.87
2017-07-07T00:56:21.069Z,1011.81
2017-07-07T00:57:21.089Z,1011.76
2017-07-07T00:59:21.145Z,1011.76
2017-07-07T01:00:21.165Z,1011.73
2017-07-07T01:01:21.187Z,1011.72
2017-07-07T01:02:21.212Z,1011.7
2017-07-07T01:03:21.240Z,1011.64
2017-07-07T01:04:21.260Z,1011.63
2017-07-07T01:05:21.287Z,1011.62
2017-07-07T01:06:21.314Z,1011.59
2017-07-07T01:07:21.336Z,1011.56
2017-07-07T01:08:21.358Z,1011.58
2017-07-07T01:09:21.383Z,1011.54
2017-07-07T01:10:21.408Z,1011.53
2017-07-07T01:11:21.430Z,1011.52
2017-07-07T01:12:21.459Z,1011.45
2017-07-07T01:13:21.484Z,1011.42
2017-07-07T01:15:21.531Z,1011.31
2017-07-07T01:16:21.556Z,1011.29
2017-07-07T01:17:21.577Z,1011.27
2017-07-07T01:18:21.605Z,1011.26
2017-07-07T01:19:21.624Z,1011.23
2017-07-07T01:20:21.650Z,1011.23
2017-07-07T01:21:21.677Z,1011.21
2017-07-07T01:22:21.701Z,1011.22
2017-07-07T01:23:21.725Z,1011.21
2017-07-07T01:24:21.749Z,1011.22
2017-07-07T01:25:21.776Z,1011.2
2017-07-07T01:26:21.795Z,1011.17
2017-07-07T01:27:21.821Z,1011.18
2017-07-07T01:28:21.843Z,1011.14
2017-07-07T01:30:21.897Z,1011.09
2017-07-07T01:31:21.920Z,1011.1
2017-07-07T01:32:21.944Z,1011.09
2017-07-07T01:33:21.969Z,1011.13
2017-07-07T01:34:21.994Z,1011.12
2017-07-07T01:35:22.014Z,1011.11
2017-07-07T01:36:22.042Z,1011.07
2017-07-07T01:37:22.063Z,1011.04
2017-07-07T01:38:22.088Z,1011.05
2017-07-07T01:39:22.112Z,1010.99
2017-07-07T01:40:22.139Z,1010.99
2017-07-07T01:41:22.164Z,1010.95
2017-07-07T01:42:22.185Z,1010.91
2017-07-07T01:43:22.210Z,1010.89
2017-07-07T01:44:22.236Z,1010.86
2017-07-07T01:45:22.259Z,1010.87
2017-07-07T01:46:22.283Z,1010.84
2017-07-07T01:47:22.307Z,1010.85
2017-07-07T01:48:22.332Z,1010.9
2017-07-07T01:49:22.354Z,1010.91
2017-07-07T01:50:22.378Z,1010.92
2017-07-07T01:51:22.408Z,1010.89
2017-07-07T01:52:22.431Z,1010.86
2017-07-07T01:53:22.456Z,1010.86
2017-07-07T01:54:22.482Z,1010.83
2017-07-07T01:55:22.505Z,1010.86
2017-07-07T01:56:22.525Z,1010.83
2017-07-07T01:57:22.547Z,1010.83
2017-07-07T01:58:22.574Z,1010.79
2017-07-07T01:59:22.600Z,1010.72
2017-07-07T02:00:22.626Z,1010.69
2017-07-07T02:02:22.673Z,1010.64
2017-07-07T02:03:22.698Z,1010.65
2017-07-07T02:04:22.721Z,1010.63
2017-07-07T02:05:22.746Z,1010.58
2017-07-07T02:06:22.769Z,1010.59
2017-07-07T02:07:22.793Z,1010.61
2017-07-07T02:08:22.820Z,1010.61
2017-07-07T02:09:22.843Z,1010.6
2017-07-07T02:10:22.870Z,1010.63
2017-07-07T02:11:22.887Z,1010.6
2017-07-07T02:12:22.916Z,1010.57
2017-07-07T02:13:22.940Z,1010.61
2017-07-07T02:14:22.967Z,1010.64
2017-07-07T02:15:22.988Z,1010.66
2017-07-07T02:16:23.013Z,1010.61
2017-07-07T02:18:23.058Z,1010.61
2017-07-07T02:19:23.085Z,1010.61
2017-07-07T02:20:23.108Z,1010.58
2017-07-07T02:21:23.134Z,1010.6
2017-07-07T02:22:23.154Z,1010.59
2017-07-07T02:23:23.184Z,1010.55
2017-07-07T02:24:23.207Z,1010.59
2017-07-07T02:25:23.233Z,1010.58
2017-07-07T02:26:23.251Z,1010.54
2017-07-07T02:27:23.282Z,1010.47
2017-07-07T02:28:23.300Z,1010.45
2017-07-07T02:29:23.382Z,1010.44
2017-07-07T02:30:23.352Z,1010.39
2017-07-07T02:31:23.373Z,1010.39
2017-07-07T02:32:23.401Z,1010.39
2017-07-07T02:34:23.449Z,1010.41
2017-07-07T02:35:23.476Z,1010.4
2017-07-07T02:36:23.502Z,1010.4
2017-07-07T02:37:23.521Z,1010.37
2017-07-07T02:38:23.547Z,1010.4
2017-07-07T02:39:23.570Z,1010.39
2017-07-07T02:40:23.647Z,1010.39
2017-07-07T02:41:23.618Z,1010.36
2017-07-07T02:42:23.641Z,1010.36
2017-07-07T02:43:23.666Z,1010.38
2017-07-07T02:44:23.693Z,1010.36
2017-07-07T02:45:23.717Z,1010.34
2017-07-07T02:46:23.739Z,1010.31
2017-07-07T02:47:23.766Z,1010.32
2017-07-07T02:48:23.785Z,1010.28
2017-07-07T02:50:23.832Z,1010.29
2017-07-07T02:51:23.863Z,1010.28
2017-07-07T02:52:23.884Z,1010.22
2017-07-07T02:53:23.909Z,1010.14
2017-07-07T02:54:23.931Z,1010.16
2017-07-07T02:55:23.954Z,1010.09
2017-07-07T02:56:23.981Z,1010.04
2017-07-07T02:57:24.009Z,1010.01
2017-07-07T02:58:24.032Z,1010.02
2017-07-07T02:59:24.050Z,1010.03
2017-07-07T03:00:24.080Z,1010.04
2017-07-07T03:01:24.098Z,1009.98
2017-07-07T03:02:24.126Z,1010
2017-07-07T03:03:24.148Z,1009.98
2017-07-07T03:05:24.196Z,1009.9
2017-07-07T03:06:24.222Z,1009.88
2017-07-07T03:07:24.245Z,1009.91
2017-07-07T03:08:24.272Z,1009.89
2017-07-07T03:09:24.297Z,1009.88
2017-07-07T03:10:24.319Z,1009.85
2017-07-07T03:11:24.345Z,1009.84
2017-07-07T03:12:24.367Z,1009.87
2017-07-07T03:13:24.392Z,1009.86
2017-07-07T03:14:24.417Z,1009.82
2017-07-07T03:15:24.442Z,1009.82
2017-07-07T03:16:24.469Z,1009.8
2017-07-07T03:17:24.489Z,1009.78
2017-07-07T03:18:24.511Z,1009.76
2017-07-07T03:19:24.538Z,1009.72
2017-07-07T03:20:24.565Z,1009.72
2017-07-07T03:21:24.583Z,1009.68
2017-07-07T03:22:24.610Z,1009.67
2017-07-07T03:23:24.635Z,1009.63
2017-07-07T03:24:24.658Z,1009.65
2017-07-07T03:25:24.681Z,1009.63
2017-07-07T03:26:24.704Z,1009.61
2017-07-07T03:27:24.733Z,1009.56
2017-07-07T03:28:24.754Z,1009.59
2017-07-07T03:29:24.784Z,1009.57
2017-07-07T03:30:24.803Z,1009.58
2017-07-07T03:31:24.829Z,1009.58
2017-07-07T03:32:24.851Z,1009.63
2017-07-07T03:33:24.880Z,1009.61
2017-07-07T03:34:24.902Z,1009.59
2017-07-07T03:35:24.925Z,1009.64
2017-07-07T03:37:24.976Z,1009.65
2017-07-07T03:38:24.999Z,1009.66
2017-07-07T03:39:25.022Z,1009.65
2017-07-07T03:40:25.045Z,1009.68
2017-07-07T03:41:25.072Z,1009.68
2017-07-07T03:42:25.093Z,1009.72
2017-07-07T03:43:25.117Z,1009.77
2017-07-07T03:44:25.144Z,1009.84
2017-07-07T03:45:25.171Z,1009.84
2017-07-07T03:46:25.192Z,1009.87
2017-07-07T03:47:25.215Z,1009.88
2017-07-07T03:48:25.243Z,1009.85
2017-07-07T03:49:25.266Z,1009.82
2017-07-07T03:50:25.291Z,1009.77
2017-07-07T03:51:25.312Z,1009.77
2017-07-07T03:53:25.363Z,1009.79
2017-07-07T03:54:25.384Z,1009.75
2017-07-07T03:55:25.408Z,1009.72
2017-07-07T03:56:25.436Z,1009.68
2017-07-07T03:57:25.460Z,1009.73
2017-07-07T03:58:25.482Z,1009.76
2017-07-07T03:59:25.508Z,1009.74
2017-07-07T04:00:25.532Z,1009.74
2017-07-07T04:01:25.555Z,1009.72
2017-07-07T04:02:25.581Z,1009.75
2017-07-07T04:03:25.657Z,1009.79
2017-07-07T04:04:25.630Z,1009.71
2017-07-07T04:05:25.653Z,1009.69
2017-07-07T04:06:25.680Z,1009.71
2017-07-07T04:07:25.703Z,1009.65
2017-07-07T04:09:25.755Z,1009.66
2017-07-07T04:10:25.775Z,1009.66
2017-07-07T04:11:25.807Z,1009.65
2017-07-07T04:12:25.823Z,1009.68
2017-07-07T04:13:25.850Z,1009.68
2017-07-07T04:14:25.875Z,1009.66
2017-07-07T04:15:25.897Z,1009.7
2017-07-07T04:16:25.925Z,1009.66
2017-07-07T04:17:25.951Z,1009.61
2017-07-07T04:18:25.970Z,1009.55
2017-07-07T04:19:25.998Z,1009.54
2017-07-07T04:20:26.024Z,1009.5
2017-07-07T04:21:26.049Z,1009.47
2017-07-07T04:22:26.071Z,1009.51
2017-07-07T04:23:26.091Z,1009.49
2017-07-07T04:25:26.144Z,1009.52
2017-07-07T04:26:26.169Z,1009.55
2017-07-07T04:27:26.196Z,1009.55
2017-07-07T04:28:26.216Z,1009.51
2017-07-07T04:29:26.242Z,1009.52
2017-07-07T04:30:26.265Z,1009.55
2017-07-07T04:31:26.290Z,1009.53
2017-07-07T04:32:26.315Z,1009.5
2017-07-07T04:33:26.339Z,1009.5
2017-07-07T04:34:26.366Z,1009.44
2017-07-07T04:35:26.388Z,1009.44
2017-07-07T04:36:26.418Z,1009.43
2017-07-07T04:37:26.437Z,1009.4
2017-07-07T04:38:26.462Z,1009.4
2017-07-07T04:40:26.511Z,1009.34
2017-07-07T04:41:26.540Z,1009.32
2017-07-07T04:42:26.560Z,1009.34
2017-07-07T04:43:26.587Z,1009.32
2017-07-07T04:44:26.606Z,1009.33
2017-07-07T04:45:26.634Z,1009.31
2017-07-07T04:46:26.655Z,1009.33
2017-07-07T04:47:26.680Z,1009.33
2017-07-07T04:48:26.703Z,1009.31
2017-07-07T04:49:26.731Z,1009.34
2017-07-07T04:50:26.759Z,1009.33
2017-07-07T04:51:26.779Z,1009.36
2017-07-07T04:52:26.804Z,1009.39
2017-07-07T04:53:26.829Z,1009.39
2017-07-07T04:54:26.854Z,1009.34
2017-07-07T04:55:26.880Z,1009.34
2017-07-07T04:56:26.902Z,1009.34
2017-07-07T04:57:26.930Z,1009.35
2017-07-07T04:58:26.953Z,1009.37
2017-07-07T04:59:26.978Z,1009.38
2017-07-07T05:00:27.002Z,1009.41
2017-07-07T05:01:27.025Z,1009.37
2017-07-07T05:02:27.052Z,1009.37
2017-07-07T05:03:27.073Z,1009.39
2017-07-07T05:04:27.100Z,1009.42
2017-07-07T05:05:27.125Z,1009.42
2017-07-07T05:06:27.150Z,1009.38
2017-07-07T05:07:27.174Z,1009.35
2017-07-07T05:08:27.199Z,1009.32
2017-07-07T05:09:27.223Z,1009.36
2017-07-07T05:10:27.244Z,1009.36
2017-07-07T05:12:27.295Z,1009.3
2017-07-07T05:13:27.324Z,1009.32
2017-07-07T05:14:27.344Z,1009.35
2017-07-07T05:15:27.368Z,1009.34
2017-07-07T05:16:27.397Z,1009.33
2017-07-07T05:17:27.418Z,1009.29
2017-07-07T05:18:27.444Z,1009.26
2017-07-07T05:19:27.469Z,1009.23
2017-07-07T05:20:27.494Z,1009.27
2017-07-07T05:21:27.515Z,1009.28
2017-07-07T05:22:27.539Z,1009.3
2017-07-07T05:23:27.567Z,1009.32
2017-07-07T05:24:27.591Z,1009.34
2017-07-07T05:25:27.612Z,1009.35
2017-07-07T05:26:27.639Z,1009.36
2017-07-07T05:28:27.690Z,1009.36
2017-07-07T05:29:27.711Z,1009.38
2017-07-07T05:30:27.742Z,1009.38
2017-07-07T05:31:27.764Z,1009.4
2017-07-07T05:32:27.788Z,1009.39
2017-07-07T05:33:27.811Z,1009.38
2017-07-07T05:34:27.834Z,1009.38
2017-07-07T05:35:27.861Z,1009.35
2017-07-07T05:36:27.887Z,1009.34
2017-07-07T05:37:27.912Z,1009.28
2017-07-07T05:38:27.936Z,1009.39
2017-07-07T05:39:27.963Z,1009.41
2017-07-07T05:40:27.983Z,1009.37
2017-07-07T05:41:28.006Z,1009.29
2017-07-07T05:42:28.036Z,1009.22
2017-07-07T05:44:28.083Z,1009.29
2017-07-07T05:45:28.104Z,1009.28
2017-07-07T05:46:28.132Z,1009.25
2017-07-07T05:47:28.152Z,1009.21
2017-07-07T05:48:28.181Z,1009.23
2017-07-07T05:49:28.206Z,1009.27
2017-07-07T05:50:28.230Z,1009.21
2017-07-07T05:51:28.252Z,1009.2
2017-07-07T05:52:28.275Z,1009.2
2017-07-07T05:53:28.311Z,1009.29
2017-07-07T05:54:28.328Z,1009.31
2017-07-07T05:55:28.352Z,1009.24
2017-07-07T05:56:28.374Z,1009.24
2017-07-07T05:57:28.399Z,1009.25
2017-07-07T05:58:28.419Z,1009.23
2017-07-07T06:00:28.470Z,1009.24
2017-07-07T06:01:28.494Z,1009.23
2017-07-07T06:02:28.519Z,1009.23
2017-07-07T06:03:28.545Z,1009.22
2017-07-07T06:04:28.565Z,1009.2
2017-07-07T06:05:28.593Z,1009.16
2017-07-07T06:06:28.616Z,1009.15
2017-07-07T06:07:28.638Z,1009.13
2017-07-07T06:08:28.663Z,1009.12
2017-07-07T06:09:28.686Z,1009.13
2017-07-07T06:10:28.764Z,1009.14
2017-07-07T06:11:28.732Z,1009.16
2017-07-07T06:12:28.762Z,1009.16
2017-07-07T06:13:28.784Z,1009.16
2017-07-07T06:15:28.881Z,1009.17
2017-07-07T06:16:28.857Z,1009.14
2017-07-07T06:17:28.881Z,1009.19
2017-07-07T06:18:28.905Z,1009.17
2017-07-07T06:19:28.927Z,1009.21
2017-07-07T06:20:28.952Z,1009.22
2017-07-07T06:21:28.976Z,1009.21
2017-07-07T06:22:29.003Z,1009.2
2017-07-07T06:23:29.024Z,1009.18
2017-07-07T06:24:29.045Z,1009.17
2017-07-07T06:25:29.072Z,1009.1
2017-07-07T06:26:29.094Z,1009.1
2017-07-07T06:27:29.122Z,1009.11
2017-07-07T06:28:29.145Z,1009.11
2017-07-07T06:29:29.171Z,1009.11
2017-07-07T06:30:29.193Z,1009.13
2017-07-07T06:31:29.220Z,1009.09
2017-07-07T06:32:29.242Z,1009.12
2017-07-07T06:33:29.267Z,1009.1
2017-07-07T06:34:29.290Z,1009.12
2017-07-07T06:35:29.313Z,1009.06
2017-07-07T06:36:29.338Z,1009.01
2017-07-07T06:37:29.363Z,1009.01
2017-07-07T06:38:29.384Z,1008.93
2017-07-07T06:39:29.412Z,1008.89
2017-07-07T06:40:29.484Z,1008.84
2017-07-07T06:41:29.461Z,1008.83
2017-07-07T06:42:29.488Z,1008.77
2017-07-07T06:43:29.505Z,1008.74
2017-07-07T06:44:29.531Z,1008.74
2017-07-07T06:45:29.554Z,1008.7
2017-07-07T06:47:29.605Z,1008.73
2017-07-07T06:48:29.631Z,1008.74
2017-07-07T06:49:29.650Z,1008.78
2017-07-07T06:50:29.725Z,1008.76
2017-07-07T06:51:29.703Z,1008.7
2017-07-07T06:52:29.728Z,1008.75
2017-07-07T06:53:29.751Z,1008.76
2017-07-07T06:54:29.774Z,1008.77
2017-07-07T06:55:29.800Z,1008.71
2017-07-07T06:56:29.870Z,1008.57
2017-07-07T06:57:29.845Z,1008.47
2017-07-07T06:58:29.875Z,1008.42
2017-07-07T06:59:29.898Z,1008.43
2017-07-07T07:00:29.924Z,1008.42
2017-07-07T07:01:29.944Z,1008.45
2017-07-07T07:03:29.995Z,1008.41
2017-07-07T07:04:30.017Z,1008.45
2017-07-07T07:05:30.044Z,1008.37
2017-07-07T07:06:30.069Z,1008.29
2017-07-07T07:07:30.098Z,1008.28
2017-07-07T07:08:30.115Z,1008.34
2017-07-07T07:09:30.140Z,1008.43
2017-07-07T07:10:30.163Z,1008.47
2017-07-07T07:11:30.188Z,1008.53
2017-07-07T07:12:30.216Z,1008.59
2017-07-07T07:13:30.239Z,1008.59
2017-07-07T07:14:30.315Z,1008.59
2017-07-07T07:15:30.287Z,1008.57
2017-07-07T07:16:30.314Z,1008.55
2017-07-07T07:17:30.337Z,1008.57
2017-07-07T07:19:30.384Z,1008.61
2017-07-07T07:20:30.409Z,1008.56
2017-07-07T07:21:30.431Z,1008.54
2017-07-07T07:22:30.458Z,1008.57
2017-07-07T07:23:30.484Z,1008.55
2017-07-07T07:24:30.511Z,1008.57
2017-07-07T07:25:30.528Z,1008.58
2017-07-07T07:26:30.558Z,1008.56
2017-07-07T07:27:30.580Z,1008.56
2017-07-07T07:28:30.606Z,1008.55
2017-07-07T07:29:30.626Z,1008.59
2017-07-07T07:30:30.652Z,1008.64
2017-07-07T07:31:30.680Z,1008.65
2017-07-07T07:32:30.701Z,1008.66
2017-07-07T07:33:30.727Z,1008.65
2017-07-07T07:35:30.778Z,1008.64
2017-07-07T07:36:30.802Z,1008.69
2017-07-07T07:37:30.924Z,1008.72
2017-07-07T07:38:30.849Z,1008.73
2017-07-07T07:39:30.873Z,1008.72
2017-07-07T07:40:30.899Z,1008.73
2017-07-07T07:41:30.925Z,1008.73
2017-07-07T07:42:30.943Z,1008.8
2017-07-07T07:43:31.021Z,1008.8
2017-07-07T07:44:30.990Z,1008.82
2017-07-07T07:45:31.020Z,1008.84
2017-07-07T07:46:31.043Z,1008.86
2017-07-07T07:47:31.068Z,1008.92
2017-07-07T07:48:31.093Z,1008.97
2017-07-07T07:50:31.141Z,1008.97
2017-07-07T07:51:31.163Z,1008.92
2017-07-07T07:52:31.193Z,1008.91
2017-07-07T07:53:31.213Z,1008.89
2017-07-07T07:54:31.239Z,1008.88
2017-07-07T07:55:31.264Z,1008.92
2017-07-07T07:56:31.337Z,1008.89
2017-07-07T07:57:31.316Z,1008.95
2017-07-07T07:58:31.335Z,1008.92
2017-07-07T07:59:31.362Z,1008.9
2017-07-07T08:00:31.385Z,1008.9
2017-07-07T08:01:31.411Z,1008.92
2017-07-07T08:02:31.437Z,1008.92
2017-07-07T08:03:31.460Z,1008.9
2017-07-07T08:04:31.484Z,1008.94
2017-07-07T08:05:31.510Z,1008.89
2017-07-07T08:06:31.531Z,1008.93
2017-07-07T08:07:31.558Z,1008.96
2017-07-07T08:08:31.581Z,1008.92
2017-07-07T08:09:31.606Z,1008.92
2017-07-07T08:10:31.631Z,1008.91
2017-07-07T08:11:31.657Z,1008.96
2017-07-07T08:12:31.683Z,1008.93
2017-07-07T08:13:31.705Z,1008.94
2017-07-07T08:14:31.730Z,1008.92
2017-07-07T08:15:31.755Z,1008.91
2017-07-07T08:16:31.781Z,1008.91
2017-07-07T08:17:31.803Z,1008.89
2017-07-07T08:18:31.828Z,1008.9
2017-07-07T08:19:31.855Z,1008.93
2017-07-07T08:20:31.877Z,1008.95
2017-07-07T08:22:31.922Z,1008.97
2017-07-07T08:23:32.003Z,1009
2017-07-07T08:24:31.974Z,1009.03
2017-07-07T08:25:32.000Z,1009.06
2017-07-07T08:26:32.021Z,1009.1
2017-07-07T08:27:32.097Z,1009.1
2017-07-07T08:28:32.071Z,1009.09
2017-07-07T08:29:32.097Z,1009.13
2017-07-07T08:30:32.123Z,1009.17
2017-07-07T08:31:32.145Z,1009.18
2017-07-07T08:32:32.170Z,1009.21
2017-07-07T08:33:32.196Z,1009.23
2017-07-07T08:34:32.220Z,1009.25
2017-07-07T08:35:32.245Z,1009.28
2017-07-07T08:36:32.273Z,1009.27
2017-07-07T08:38:32.319Z,1009.25
2017-07-07T08:39:32.340Z,1009.29
2017-07-07T08:40:32.369Z,1009.25
2017-07-07T08:41:32.389Z,1009.26
2017-07-07T08:42:32.417Z,1009.26
2017-07-07T08:43:32.490Z,1009.3
2017-07-07T08:44:32.463Z,1009.32
2017-07-07T08:45:32.488Z,1009.32
2017-07-07T08:46:32.515Z,1009.35
2017-07-07T08:47:32.540Z,1009.33
2017-07-07T08:48:32.566Z,1009.35
2017-07-07T08:49:32.591Z,1009.34
2017-07-07T08:50:32.616Z,1009.33
2017-07-07T08:51:32.642Z,1009.34
2017-07-07T08:52:32.664Z,1009.41
2017-07-07T08:54:32.716Z,1009.47
2017-07-07T08:55:32.737Z,1009.47
2017-07-07T08:56:32.763Z,1009.53
2017-07-07T08:57:32.784Z,1009.54
2017-07-07T08:58:32.815Z,1009.54
2017-07-07T08:59:32.836Z,1009.54
2017-07-07T09:00:32.865Z,1009.54
2017-07-07T09:01:32.936Z,1009.57
2017-07-07T09:02:32.913Z,1009.52
2017-07-07T09:03:32.938Z,1009.54
2017-07-07T09:04:32.962Z,1009.51
2017-07-07T09:05:32.986Z,1009.49
2017-07-07T09:06:33.012Z,1009.48
2017-07-07T09:07:33.036Z,1009.46
2017-07-07T09:08:33.063Z,1009.47
2017-07-07T09:10:33.111Z,1009.47
2017-07-07T09:11:33.136Z,1009.47
2017-07-07T09:12:33.157Z,1009.44
2017-07-07T09:13:33.190Z,1009.43
2017-07-07T09:14:33.210Z,1009.44
2017-07-07T09:15:33.234Z,1009.42
2017-07-07T09:16:33.258Z,1009.36
2017-07-07T09:17:33.283Z,1009.35
2017-07-07T09:18:33.312Z,1009.32
2017-07-07T09:19:33.332Z,1009.31
2017-07-07T09:20:33.361Z,1009.29
2017-07-07T09:21:33.383Z,1009.27
2017-07-07T09:22:33.409Z,1009.29
2017-07-07T09:23:33.485Z,1009.29
2017-07-07T09:25:33.487Z,1009.21
2017-07-07T09:26:33.507Z,1009.19
2017-07-07T09:27:33.534Z,1009.21
2017-07-07T09:28:33.562Z,1009.17
2017-07-07T09:29:33.581Z,1009.13
2017-07-07T09:30:33.609Z,1009.08
2017-07-07T09:31:33.633Z,1009.05
2017-07-07T09:32:33.658Z,1009.05
2017-07-07T09:33:33.684Z,1009.05
2017-07-07T09:34:33.710Z,1009.03
2017-07-07T09:35:33.734Z,1008.99
2017-07-07T09:36:33.757Z,1009
2017-07-07T09:37:33.782Z,1008.97
2017-07-07T09:38:33.807Z,1008.96
2017-07-07T09:39:33.884Z,1008.93
2017-07-07T09:40:33.855Z,1008.92
2017-07-07T09:41:33.884Z,1008.96
2017-07-07T09:42:33.903Z,1008.94
2017-07-07T09:43:33.941Z,1008.88
2017-07-07T09:44:33.954Z,1008.93
2017-07-07T09:45:33.978Z,1008.91
2017-07-07T09:46:34.003Z,1008.99
2017-07-07T09:47:34.032Z,1009
2017-07-07T09:48:34.057Z,1009.05
2017-07-07T09:49:34.082Z,1009.08
2017-07-07T09:50:34.106Z,1009.06
2017-07-07T09:51:34.133Z,1009.03
2017-07-07T09:52:34.158Z,1008.98
2017-07-07T09:53:34.181Z,1009.02
2017-07-07T09:54:34.207Z,1009.02
2017-07-07T09:55:34.280Z,1009.05
2017-07-07T09:57:34.286Z,1009
2017-07-07T09:58:34.311Z,1009.03
2017-07-07T09:59:34.333Z,1009.07
2017-07-07T10:00:34.362Z,1009.1
2017-07-07T10:01:34.386Z,1009.12
2017-07-07T10:02:34.462Z,1009.08
2017-07-07T10:03:34.442Z,1009.1
2017-07-07T10:04:34.466Z,1009.06
2017-07-07T10:05:34.492Z,1009.08
2017-07-07T10:06:34.518Z,1009.08
2017-07-07T10:07:34.545Z,1009.06
2017-07-07T10:08:34.567Z,1009.06
2017-07-07T10:09:34.595Z,1009.03
2017-07-07T10:10:34.620Z,1009.05
2017-07-07T10:11:34.648Z,1009.01
2017-07-07T10:13:34.703Z,1009.01
2017-07-07T10:14:34.728Z,1008.91
2017-07-07T10:15:34.753Z,1008.95
2017-07-07T10:16:34.831Z,1008.93
2017-07-07T10:17:34.804Z,1008.96
2017-07-07T10:18:34.887Z,1008.97
2017-07-07T10:19:34.862Z,1008.97
2017-07-07T10:20:34.891Z,1008.98
2017-07-07T10:21:34.913Z,1008.96
2017-07-07T10:22:34.943Z,1008.95
2017-07-07T10:23:34.968Z,1008.99
2017-07-07T10:24:34.994Z,1009.03
2017-07-07T10:25:35.018Z,1009.05
2017-07-07T10:26:35.047Z,1009.05
2017-07-07T10:27:35.076Z,1009.07
2017-07-07T10:29:35.128Z,1009.1
2017-07-07T10:30:35.156Z,1009.06
2017-07-07T10:31:35.179Z,1009.06
2017-07-07T10:32:35.206Z,1009.03
2017-07-07T10:33:35.234Z,1008.99
2017-07-07T10:34:35.269Z,1008.96
2017-07-07T10:35:35.289Z,1008.94
2017-07-07T10:36:35.318Z,1008.91
2017-07-07T10:37:35.347Z,1008.92
2017-07-07T10:38:35.375Z,1008.88
2017-07-07T10:39:35.400Z,1008.92
2017-07-07T10:40:35.429Z,1008.91
2017-07-07T10:41:35.460Z,1008.85
2017-07-07T10:42:35.538Z,1008.8
2017-07-07T10:43:35.514Z,1008.83
2017-07-07T10:45:35.572Z,1008.8
2017-07-07T10:46:35.605Z,1008.8
2017-07-07T10:47:35.629Z,1008.81
2017-07-07T10:48:35.658Z,1008.8
2017-07-07T10:49:35.688Z,1008.77
2017-07-07T10:50:35.717Z,1008.75
2017-07-07T10:51:35.743Z,1008.75
2017-07-07T10:52:35.771Z,1008.75
2017-07-07T10:53:35.802Z,1008.75
2017-07-07T10:54:35.826Z,1008.72
2017-07-07T10:55:35.857Z,1008.69
2017-07-07T10:56:35.886Z,1008.7
2017-07-07T10:57:35.914Z,1008.71
2017-07-07T10:58:35.941Z,1008.67
2017-07-07T11:00:36.199Z,1008.63
2017-07-07T11:01:36.028Z,1008.62
2017-07-07T11:02:36.057Z,1008.66
2017-07-07T11:03:36.085Z,1008.64
2017-07-07T11:04:36.161Z,1008.62
2017-07-07T11:05:36.141Z,1008.6
2017-07-07T11:06:36.171Z,1008.58
2017-07-07T11:07:36.197Z,1008.56
2017-07-07T11:08:36.227Z,1008.6
2017-07-07T11:09:36.257Z,1008.58
2017-07-07T11:10:36.283Z,1008.58
2017-07-07T11:11:36.313Z,1008.58
2017-07-07T11:12:36.340Z,1008.58
2017-07-07T11:13:36.421Z,1008.56
2017-07-07T11:14:36.398Z,1008.55
2017-07-07T11:15:36.426Z,1008.51
2017-07-07T11:16:36.453Z,1008.51
2017-07-07T11:17:36.484Z,1008.52
2017-07-07T11:18:36.510Z,1008.49
2017-07-07T11:19:36.641Z,1008.46
2017-07-07T11:20:36.568Z,1008.51
2017-07-07T11:21:36.596Z,1008.5
2017-07-07T11:22:36.723Z,1008.5
2017-07-07T11:23:36.653Z,1008.54
2017-07-07T11:24:36.684Z,1008.51
2017-07-07T11:25:36.707Z,1008.48
2017-07-07T11:26:36.741Z,1008.48
2017-07-07T11:27:36.816Z,1008.52
2017-07-07T11:28:36.796Z,1008.54
2017-07-07T11:29:36.824Z,1008.54
2017-07-07T11:30:36.854Z,1008.54
2017-07-07T11:32:36.908Z,1008.56
2017-07-07T11:33:36.938Z,1008.55
2017-07-07T11:34:36.964Z,1008.55
2017-07-07T11:35:36.990Z,1008.55
2017-07-07T11:36:37.025Z,1008.55
2017-07-07T11:37:37.051Z,1008.52
2017-07-07T11:38:37.079Z,1008.53
2017-07-07T11:39:37.109Z,1008.49
2017-07-07T11:40:37.135Z,1008.56
2017-07-07T11:41:37.165Z,1008.56
2017-07-07T11:42:37.189Z,1008.58
2017-07-07T11:43:37.224Z,1008.54
2017-07-07T11:44:37.248Z,1008.51
2017-07-07T11:45:37.275Z,1008.55
2017-07-07T11:46:37.309Z,1008.5
2017-07-07T11:48:37.362Z,1008.49
2017-07-07T11:49:37.390Z,1008.48
2017-07-07T11:50:37.420Z,1008.52
2017-07-07T11:51:37.449Z,1008.51
2017-07-07T11:52:37.477Z,1008.51
2017-07-07T11:53:37.508Z,1008.49
2017-07-07T11:54:37.535Z,1008.5
2017-07-07T11:55:37.710Z,1008.5
2017-07-07T11:56:37.590Z,1008.53
2017-07-07T11:57:37.620Z,1008.47
2017-07-07T11:58:37.650Z,1008.41
2017-07-07T11:59:37.778Z,1008.44
2017-07-07T12:00:37.707Z,1008.43
2017-07-07T12:01:37.733Z,1008.4
2017-07-07T12:02:37.761Z,1008.42
2017-07-07T12:04:37.821Z,1008.36
2017-07-07T12:05:37.898Z,1008.37
2017-07-07T12:06:37.877Z,1008.36
2017-07-07T12:07:37.905Z,1008.38
2017-07-07T12:08:37.933Z,1008.41
2017-07-07T12:09:37.962Z,1008.38
2017-07-07T12:10:37.989Z,1008.43
2017-07-07T12:11:38.019Z,1008.41
2017-07-07T12:12:38.044Z,1008.42
2017-07-07T12:13:38.077Z,1008.39
2017-07-07T12:14:38.102Z,1008.44
2017-07-07T12:15:38.134Z,1008.37
2017-07-07T12:16:38.159Z,1008.41
2017-07-07T12:17:38.192Z,1008.43
2017-07-07T12:18:38.217Z,1008.43
2017-07-07T12:20:38.276Z,1008.36
2017-07-07T12:21:38.306Z,1008.32
2017-07-07T12:22:38.332Z,1008.36
2017-07-07T12:23:38.359Z,1008.33
2017-07-07T12:24:38.405Z,1008.32
2017-07-07T12:25:38.419Z,1008.34
2017-07-07T12:26:38.445Z,1008.34
2017-07-07T12:27:38.479Z,1008.32
2017-07-07T12:28:38.604Z,1008.28
2017-07-07T12:29:38.535Z,1008.27
2017-07-07T12:30:38.560Z,1008.29
2017-07-07T12:31:38.595Z,1008.34
2017-07-07T12:32:38.618Z,1008.34
2017-07-07T12:33:38.649Z,1008.3
2017-07-07T12:35:38.705Z,1008.3
2017-07-07T12:36:38.736Z,1008.29
2017-07-07T12:37:38.768Z,1008.3
2017-07-07T12:38:38.792Z,1008.35
2017-07-07T12:39:38.824Z,1008.33
2017-07-07T12:40:38.851Z,1008.37
2017-07-07T12:41:38.880Z,1008.33
2017-07-07T12:42:38.912Z,1008.37
2017-07-07T12:43:38.938Z,1008.34
2017-07-07T12:44:38.965Z,1008.37
2017-07-07T12:45:38.996Z,1008.35
2017-07-07T12:46:39.027Z,1008.33
2017-07-07T12:47:39.058Z,1008.34
2017-07-07T12:48:39.085Z,1008.37